Impacts TAF Board
For situational awareness. Not to be used for flight planning purposes.
IDs:

KMDW - Chicago/Midway Intl, IL, US

Issued at 0533 UTC 23 Feb 2019
Updated at 0643 UTC 23 Feb 2019
Potential Impact None Slight Moderate High
Time<<24/07Z 24/08Z 24/09Z 24/10Z 24/11Z 24/12Z 24/13Z 24/14Z 24/15Z 24/16Z 24/17Z 24/18Z 24/19Z
Type PRVL PRVL PRVL PRVL PRVL
VIS 5 5 5 6 6
CIG 15 15 15 15 15
Cover OVC OVC OVC OVC OVC
FltCat MVFR MVFR MVFR MVFR MVFR
WX RA BR RA BR RA BR -SHSN -SHSN
WDir 190 190 190 260 260
WSpd 14 14 14 20 20
WGst 21 21 21 32 32
Raw TAF
KMDW 230533Z 2306/2412 09009KT P6SM OVC080
  FM230900 10009KT P6SM OVC050
  FM231200 11010KT P6SM SCT015 OVC030
  FM231500 11011KT 5SM -SHRA BR OVC007
  FM231800 10011KT 3SM -SHRA BR OVC005
  FM232100 09010KT 1SM -SHRA BR OVC004
  PROB30 2321/2324 1/2SM -SHRA FG OVC003
  FM240000 13012KT 3SM -SHRA BR BKN004 OVC010
  PROB30 2400/2403 1SM -TSRA BR BKN010 OVC020CB
  FM240300 16012G18KT 5SM BR VCSH SCT004 OVC010 WS015/22045KT
  FM240600 19014G21KT 5SM RA BR SCT008 OVC015 WS020/23045KT
  FM241000 26020G32KT 6SM -SHSN OVC015


METAR Board
Radar Display
Forecast Discussion
For situational awareness. Not to be used for flight planning purposes.